sensor_id;sensor_type;location;lat;lon;timestamp;P1;durP1;ratioP1;P2;durP2;ratioP2
79074;SDS011;68476;42.710;23.388;2023-07-13T00:00:38;10.63;;;7.18;;
79074;SDS011;68476;42.710;23.388;2023-07-13T00:03:04;8.40;;;6.65;;
79074;SDS011;68476;42.710;23.388;2023-07-13T00:05:29;7.22;;;6.47;;
79074;SDS011;68476;42.710;23.388;2023-07-13T00:07:56;9.88;;;6.70;;
79074;SDS011;68476;42.710;23.388;2023-07-13T00:10:21;7.45;;;6.50;;
79074;SDS011;68476;42.710;23.388;2023-07-13T00:12:47;8.68;;;6.72;;
79074;SDS011;68476;42.710;23.388;2023-07-13T00:15:18;9.65;;;6.90;;
79074;SDS011;68476;42.710;23.388;2023-07-13T00:17:50;9.82;;;7.13;;
79074;SDS011;68476;42.710;23.388;2023-07-13T00:20:17;7.80;;;6.70;;
79074;SDS011;68476;42.710;23.388;2023-07-13T00:22:43;8.48;;;7.38;;
79074;SDS011;68476;42.710;23.388;2023-07-13T00:25:10;9.25;;;6.90;;
79074;SDS011;68476;42.710;23.388;2023-07-13T00:27:37;8.63;;;5.88;;
79074;SDS011;68476;42.710;23.388;2023-07-13T00:30:02;9.88;;;6.63;;
79074;SDS011;68476;42.710;23.388;2023-07-13T00:32:28;7.25;;;6.55;;
79074;SDS011;68476;42.710;23.388;2023-07-13T00:34:54;8.90;;;6.90;;
79074;SDS011;68476;42.710;23.388;2023-07-13T00:37:20;9.00;;;6.97;;
79074;SDS011;68476;42.710;23.388;2023-07-13T00:39:45;11.00;;;7.00;;
79074;SDS011;68476;42.710;23.388;2023-07-13T00:42:11;9.30;;;7.35;;
79074;SDS011;68476;42.710;23.388;2023-07-13T00:44:36;11.95;;;7.97;;
79074;SDS011;68476;42.710;23.388;2023-07-13T00:47:04;8.27;;;7.15;;
79074;SDS011;68476;42.710;23.388;2023-07-13T00:49:30;8.70;;;6.90;;
79074;SDS011;68476;42.710;23.388;2023-07-13T00:52:00;10.23;;;7.00;;
79074;SDS011;68476;42.710;23.388;2023-07-13T00:54:35;11.75;;;7.38;;
79074;SDS011;68476;42.710;23.388;2023-07-13T00:57:04;10.20;;;7.25;;
79074;SDS011;68476;42.710;23.388;2023-07-13T00:59:33;9.70;;;7.38;;
79074;SDS011;68476;42.710;23.388;2023-07-13T01:02:01;9.82;;;7.40;;
79074;SDS011;68476;42.710;23.388;2023-07-13T01:04:27;8.98;;;7.05;;
79074;SDS011;68476;42.710;23.388;2023-07-13T01:06:53;11.68;;;7.30;;
79074;SDS011;68476;42.710;23.388;2023-07-13T01:09:19;8.48;;;6.88;;
79074;SDS011;68476;42.710;23.388;2023-07-13T01:11:45;8.32;;;6.90;;
79074;SDS011;68476;42.710;23.388;2023-07-13T01:14:12;9.38;;;6.50;;
79074;SDS011;68476;42.710;23.388;2023-07-13T01:16:39;11.00;;;7.07;;
79074;SDS011;68476;42.710;23.388;2023-07-13T01:19:25;7.57;;;6.55;;
79074;SDS011;68476;42.710;23.388;2023-07-13T01:22:06;7.95;;;6.30;;
79074;SDS011;68476;42.710;23.388;2023-07-13T01:24:38;8.70;;;6.88;;
79074;SDS011;68476;42.710;23.388;2023-07-13T01:27:06;10.60;;;7.60;;
79074;SDS011;68476;42.710;23.388;2023-07-13T01:29:34;10.10;;;7.80;;
79074;SDS011;68476;42.710;23.388;2023-07-13T01:32:11;9.75;;;7.78;;
79074;SDS011;68476;42.710;23.388;2023-07-13T01:34:38;9.73;;;8.30;;
79074;SDS011;68476;42.710;23.388;2023-07-13T01:37:07;11.35;;;8.98;;
79074;SDS011;68476;42.710;23.388;2023-07-13T01:39:33;8.98;;;8.07;;
79074;SDS011;68476;42.710;23.388;2023-07-13T01:41:59;9.40;;;7.78;;
79074;SDS011;68476;42.710;23.388;2023-07-13T01:44:24;13.73;;;8.70;;
79074;SDS011;68476;42.710;23.388;2023-07-13T01:46:50;9.15;;;7.90;;
79074;SDS011;68476;42.710;23.388;2023-07-13T01:49:16;10.90;;;8.30;;
79074;SDS011;68476;42.710;23.388;2023-07-13T01:51:41;10.85;;;8.15;;
79074;SDS011;68476;42.710;23.388;2023-07-13T01:54:07;13.52;;;8.30;;
79074;SDS011;68476;42.710;23.388;2023-07-13T01:56:32;13.45;;;9.07;;
79074;SDS011;68476;42.710;23.388;2023-07-13T01:58:57;9.15;;;8.10;;
79074;SDS011;68476;42.710;23.388;2023-07-13T02:01:23;12.38;;;8.75;;
79074;SDS011;68476;42.710;23.388;2023-07-13T02:03:48;11.43;;;8.20;;
79074;SDS011;68476;42.710;23.388;2023-07-13T02:06:14;10.18;;;8.27;;
79074;SDS011;68476;42.710;23.388;2023-07-13T02:08:40;9.70;;;8.30;;
79074;SDS011;68476;42.710;23.388;2023-07-13T02:11:06;11.48;;;8.88;;
79074;SDS011;68476;42.710;23.388;2023-07-13T02:13:31;11.38;;;8.65;;
79074;SDS011;68476;42.710;23.388;2023-07-13T02:15:57;9.93;;;8.10;;
79074;SDS011;68476;42.710;23.388;2023-07-13T02:18:22;13.38;;;8.52;;
79074;SDS011;68476;42.710;23.388;2023-07-13T02:20:48;10.35;;;7.97;;
79074;SDS011;68476;42.710;23.388;2023-07-13T02:23:13;11.43;;;8.77;;
79074;SDS011;68476;42.710;23.388;2023-07-13T02:25:39;12.73;;;9.10;;
79074;SDS011;68476;42.710;23.388;2023-07-13T02:28:04;13.32;;;9.73;;
79074;SDS011;68476;42.710;23.388;2023-07-13T02:30:30;10.75;;;9.45;;
79074;SDS011;68476;42.710;23.388;2023-07-13T02:32:56;11.77;;;9.15;;
79074;SDS011;68476;42.710;23.388;2023-07-13T02:35:22;10.25;;;8.00;;
79074;SDS011;68476;42.710;23.388;2023-07-13T02:37:47;13.68;;;9.60;;
79074;SDS011;68476;42.710;23.388;2023-07-13T02:40:13;11.43;;;9.25;;
79074;SDS011;68476;42.710;23.388;2023-07-13T02:42:39;12.63;;;8.82;;
79074;SDS011;68476;42.710;23.388;2023-07-13T02:45:06;11.25;;;8.93;;
79074;SDS011;68476;42.710;23.388;2023-07-13T02:47:33;10.95;;;9.50;;
79074;SDS011;68476;42.710;23.388;2023-07-13T02:49:58;12.00;;;8.73;;
79074;SDS011;68476;42.710;23.388;2023-07-13T02:52:24;10.80;;;8.50;;
79074;SDS011;68476;42.710;23.388;2023-07-13T02:54:50;9.68;;;8.48;;
79074;SDS011;68476;42.710;23.388;2023-07-13T02:57:15;10.57;;;8.10;;
79074;SDS011;68476;42.710;23.388;2023-07-13T02:59:40;10.60;;;8.68;;
79074;SDS011;68476;42.710;23.388;2023-07-13T03:02:06;9.77;;;8.15;;
79074;SDS011;68476;42.710;23.388;2023-07-13T03:04:31;11.00;;;9.07;;
79074;SDS011;68476;42.710;23.388;2023-07-13T03:06:57;10.60;;;9.20;;
79074;SDS011;68476;42.710;23.388;2023-07-13T03:09:23;11.35;;;8.88;;
79074;SDS011;68476;42.710;23.388;2023-07-13T03:11:52;10.38;;;9.23;;
79074;SDS011;68476;42.710;23.388;2023-07-13T03:14:19;11.57;;;9.38;;
79074;SDS011;68476;42.710;23.388;2023-07-13T03:16:44;12.27;;;9.50;;
79074;SDS011;68476;42.710;23.388;2023-07-13T03:19:09;11.27;;;9.13;;
79074;SDS011;68476;42.710;23.388;2023-07-13T03:21:35;10.70;;;8.90;;
79074;SDS011;68476;42.710;23.388;2023-07-13T03:24:00;12.18;;;8.95;;
79074;SDS011;68476;42.710;23.388;2023-07-13T03:26:26;13.35;;;9.48;;
79074;SDS011;68476;42.710;23.388;2023-07-13T03:28:51;12.13;;;9.48;;
79074;SDS011;68476;42.710;23.388;2023-07-13T03:31:18;13.32;;;9.98;;
79074;SDS011;68476;42.710;23.388;2023-07-13T03:33:45;9.65;;;8.68;;
79074;SDS011;68476;42.710;23.388;2023-07-13T03:36:19;12.13;;;10.30;;
79074;SDS011;68476;42.710;23.388;2023-07-13T03:38:50;10.50;;;9.40;;
79074;SDS011;68476;42.710;23.388;2023-07-13T03:41:17;12.27;;;9.88;;
79074;SDS011;68476;42.710;23.388;2023-07-13T03:43:44;12.77;;;9.95;;
79074;SDS011;68476;42.710;23.388;2023-07-13T03:46:09;12.48;;;9.65;;
79074;SDS011;68476;42.710;23.388;2023-07-13T03:48:35;13.10;;;9.50;;
79074;SDS011;68476;42.710;23.388;2023-07-13T03:51:01;11.50;;;9.32;;
79074;SDS011;68476;42.710;23.388;2023-07-13T03:53:27;13.18;;;10.30;;
79074;SDS011;68476;42.710;23.388;2023-07-13T03:55:52;10.95;;;9.18;;
79074;SDS011;68476;42.710;23.388;2023-07-13T03:58:28;14.60;;;10.02;;
79074;SDS011;68476;42.710;23.388;2023-07-13T04:00:58;10.68;;;8.95;;
79074;SDS011;68476;42.710;23.388;2023-07-13T04:03:24;13.65;;;10.80;;
79074;SDS011;68476;42.710;23.388;2023-07-13T04:05:52;12.82;;;9.30;;
79074;SDS011;68476;42.710;23.388;2023-07-13T04:08:18;11.07;;;9.25;;
79074;SDS011;68476;42.710;23.388;2023-07-13T04:10:44;11.45;;;9.85;;
79074;SDS011;68476;42.710;23.388;2023-07-13T04:13:09;11.93;;;9.45;;
79074;SDS011;68476;42.710;23.388;2023-07-13T04:15:35;10.25;;;9.05;;
79074;SDS011;68476;42.710;23.388;2023-07-13T04:18:00;10.65;;;8.80;;
79074;SDS011;68476;42.710;23.388;2023-07-13T04:20:25;11.25;;;9.10;;
79074;SDS011;68476;42.710;23.388;2023-07-13T04:22:51;14.82;;;9.68;;
79074;SDS011;68476;42.710;23.388;2023-07-13T04:25:18;16.40;;;10.10;;
79074;SDS011;68476;42.710;23.388;2023-07-13T04:27:44;12.88;;;9.80;;
79074;SDS011;68476;42.710;23.388;2023-07-13T04:30:09;10.90;;;9.57;;
79074;SDS011;68476;42.710;23.388;2023-07-13T04:32:35;11.65;;;9.40;;
79074;SDS011;68476;42.710;23.388;2023-07-13T04:35:00;13.27;;;9.60;;
79074;SDS011;68476;42.710;23.388;2023-07-13T04:37:26;11.80;;;9.32;;
79074;SDS011;68476;42.710;23.388;2023-07-13T04:39:51;11.30;;;9.60;;
79074;SDS011;68476;42.710;23.388;2023-07-13T04:42:17;13.70;;;9.73;;
79074;SDS011;68476;42.710;23.388;2023-07-13T04:44:49;12.07;;;9.43;;
79074;SDS011;68476;42.710;23.388;2023-07-13T04:47:16;10.63;;;8.80;;
79074;SDS011;68476;42.710;23.388;2023-07-13T04:49:42;15.20;;;10.25;;
79074;SDS011;68476;42.710;23.388;2023-07-13T04:52:07;13.02;;;9.65;;
79074;SDS011;68476;42.710;23.388;2023-07-13T04:54:33;15.45;;;10.35;;
79074;SDS011;68476;42.710;23.388;2023-07-13T04:56:59;13.18;;;10.27;;
79074;SDS011;68476;42.710;23.388;2023-07-13T04:59:25;13.40;;;10.40;;
79074;SDS011;68476;42.710;23.388;2023-07-13T05:01:50;12.45;;;10.85;;
79074;SDS011;68476;42.710;23.388;2023-07-13T05:04:16;14.70;;;10.82;;
79074;SDS011;68476;42.710;23.388;2023-07-13T05:06:41;12.68;;;10.20;;
79074;SDS011;68476;42.710;23.388;2023-07-13T05:09:07;15.73;;;9.95;;
79074;SDS011;68476;42.710;23.388;2023-07-13T05:11:32;12.88;;;10.73;;
79074;SDS011;68476;42.710;23.388;2023-07-13T05:13:58;12.68;;;11.05;;
79074;SDS011;68476;42.710;23.388;2023-07-13T05:16:23;14.13;;;11.50;;
79074;SDS011;68476;42.710;23.388;2023-07-13T05:18:49;14.85;;;10.95;;
79074;SDS011;68476;42.710;23.388;2023-07-13T05:21:14;13.23;;;10.52;;
79074;SDS011;68476;42.710;23.388;2023-07-13T05:23:40;12.82;;;10.32;;
79074;SDS011;68476;42.710;23.388;2023-07-13T05:26:07;14.45;;;10.30;;
79074;SDS011;68476;42.710;23.388;2023-07-13T05:28:32;11.73;;;10.50;;
79074;SDS011;68476;42.710;23.388;2023-07-13T05:30:58;18.05;;;10.13;;
79074;SDS011;68476;42.710;23.388;2023-07-13T05:33:24;13.93;;;10.73;;
79074;SDS011;68476;42.710;23.388;2023-07-13T05:35:50;12.35;;;10.15;;
79074;SDS011;68476;42.710;23.388;2023-07-13T05:38:16;13.82;;;11.00;;
79074;SDS011;68476;42.710;23.388;2023-07-13T05:40:44;15.98;;;11.35;;
79074;SDS011;68476;42.710;23.388;2023-07-13T05:43:11;17.52;;;10.60;;
79074;SDS011;68476;42.710;23.388;2023-07-13T05:45:37;18.75;;;10.50;;
79074;SDS011;68476;42.710;23.388;2023-07-13T05:48:03;12.00;;;10.02;;
79074;SDS011;68476;42.710;23.388;2023-07-13T05:50:28;19.27;;;10.35;;
79074;SDS011;68476;42.710;23.388;2023-07-13T05:52:54;15.85;;;9.88;;
79074;SDS011;68476;42.710;23.388;2023-07-13T05:55:19;17.92;;;10.77;;
79074;SDS011;68476;42.710;23.388;2023-07-13T05:57:45;13.82;;;10.25;;
79074;SDS011;68476;42.710;23.388;2023-07-13T06:00:11;15.15;;;10.40;;
79074;SDS011;68476;42.710;23.388;2023-07-13T06:02:37;12.27;;;9.50;;
79074;SDS011;68476;42.710;23.388;2023-07-13T06:05:02;13.70;;;10.55;;
79074;SDS011;68476;42.710;23.388;2023-07-13T06:07:28;11.50;;;8.80;;
79074;SDS011;68476;42.710;23.388;2023-07-13T06:09:53;11.15;;;8.95;;
79074;SDS011;68476;42.710;23.388;2023-07-13T06:12:18;11.30;;;8.65;;
79074;SDS011;68476;42.710;23.388;2023-07-13T06:14:44;14.18;;;8.90;;
79074;SDS011;68476;42.710;23.388;2023-07-13T06:17:09;10.77;;;9.27;;
79074;SDS011;68476;42.710;23.388;2023-07-13T06:19:35;10.77;;;9.05;;
79074;SDS011;68476;42.710;23.388;2023-07-13T06:22:00;11.10;;;8.75;;
79074;SDS011;68476;42.710;23.388;2023-07-13T06:24:26;13.20;;;8.60;;
79074;SDS011;68476;42.710;23.388;2023-07-13T06:26:51;11.15;;;8.48;;
79074;SDS011;68476;42.710;23.388;2023-07-13T06:29:17;10.32;;;8.27;;
79074;SDS011;68476;42.710;23.388;2023-07-13T06:31:42;11.88;;;8.00;;
79074;SDS011;68476;42.710;23.388;2023-07-13T06:34:08;10.43;;;7.60;;
79074;SDS011;68476;42.710;23.388;2023-07-13T06:36:33;10.77;;;8.50;;
79074;SDS011;68476;42.710;23.388;2023-07-13T06:38:58;9.82;;;8.32;;
79074;SDS011;68476;42.710;23.388;2023-07-13T06:41:24;10.88;;;8.15;;
79074;SDS011;68476;42.710;23.388;2023-07-13T06:46:20;14.25;;;8.77;;
79074;SDS011;68476;42.710;23.388;2023-07-13T06:48:48;14.82;;;8.70;;
79074;SDS011;68476;42.710;23.388;2023-07-13T06:51:14;11.00;;;8.15;;
79074;SDS011;68476;42.710;23.388;2023-07-13T06:53:40;12.38;;;8.02;;
79074;SDS011;68476;42.710;23.388;2023-07-13T06:56:05;10.27;;;7.78;;
79074;SDS011;68476;42.710;23.388;2023-07-13T06:58:31;11.45;;;8.20;;
79074;SDS011;68476;42.710;23.388;2023-07-13T07:00:59;13.43;;;8.43;;
79074;SDS011;68476;42.710;23.388;2023-07-13T07:03:24;12.77;;;7.85;;
79074;SDS011;68476;42.710;23.388;2023-07-13T07:05:50;11.25;;;8.25;;
79074;SDS011;68476;42.710;23.388;2023-07-13T07:08:15;11.32;;;7.93;;
79074;SDS011;68476;42.710;23.388;2023-07-13T07:10:41;10.50;;;7.90;;
79074;SDS011;68476;42.710;23.388;2023-07-13T07:13:07;11.18;;;8.43;;
79074;SDS011;68476;42.710;23.388;2023-07-13T07:15:33;9.98;;;8.30;;
79074;SDS011;68476;42.710;23.388;2023-07-13T07:18:00;12.75;;;8.15;;
79074;SDS011;68476;42.710;23.388;2023-07-13T07:20:25;10.85;;;8.13;;
79074;SDS011;68476;42.710;23.388;2023-07-13T07:22:51;9.35;;;7.75;;
79074;SDS011;68476;42.710;23.388;2023-07-13T07:25:17;10.38;;;7.57;;
79074;SDS011;68476;42.710;23.388;2023-07-13T07:27:43;11.88;;;8.02;;
79074;SDS011;68476;42.710;23.388;2023-07-13T07:30:08;10.07;;;7.88;;
79074;SDS011;68476;42.710;23.388;2023-07-13T07:32:34;9.25;;;8.23;;
79074;SDS011;68476;42.710;23.388;2023-07-13T07:34:59;8.57;;;7.78;;
79074;SDS011;68476;42.710;23.388;2023-07-13T07:37:25;8.68;;;7.47;;
79074;SDS011;68476;42.710;23.388;2023-07-13T07:39:50;9.40;;;7.30;;
79074;SDS011;68476;42.710;23.388;2023-07-13T07:42:16;10.05;;;7.70;;
79074;SDS011;68476;42.710;23.388;2023-07-13T07:44:41;12.30;;;7.72;;
79074;SDS011;68476;42.710;23.388;2023-07-13T07:47:08;11.23;;;7.60;;
79074;SDS011;68476;42.710;23.388;2023-07-13T07:49:34;10.38;;;7.38;;
79074;SDS011;68476;42.710;23.388;2023-07-13T07:52:00;8.68;;;7.25;;
79074;SDS011;68476;42.710;23.388;2023-07-13T07:54:29;9.27;;;7.85;;
79074;SDS011;68476;42.710;23.388;2023-07-13T07:56:54;11.75;;;8.05;;
79074;SDS011;68476;42.710;23.388;2023-07-13T07:59:20;8.43;;;7.53;;
79074;SDS011;68476;42.710;23.388;2023-07-13T08:01:45;8.82;;;7.35;;
79074;SDS011;68476;42.710;23.388;2023-07-13T08:04:13;8.10;;;7.07;;
79074;SDS011;68476;42.710;23.388;2023-07-13T08:06:38;11.07;;;8.23;;
79074;SDS011;68476;42.710;23.388;2023-07-13T08:09:03;9.35;;;6.72;;
79074;SDS011;68476;42.710;23.388;2023-07-13T08:11:29;9.32;;;7.05;;
79074;SDS011;68476;42.710;23.388;2023-07-13T08:13:55;10.10;;;7.10;;
79074;SDS011;68476;42.710;23.388;2023-07-13T08:16:21;10.05;;;7.32;;
79074;SDS011;68476;42.710;23.388;2023-07-13T08:18:47;13.05;;;7.35;;
79074;SDS011;68476;42.710;23.388;2023-07-13T08:21:13;10.32;;;7.57;;
79074;SDS011;68476;42.710;23.388;2023-07-13T08:23:38;7.82;;;7.03;;
79074;SDS011;68476;42.710;23.388;2023-07-13T08:26:04;11.23;;;7.70;;
79074;SDS011;68476;42.710;23.388;2023-07-13T08:28:29;10.18;;;6.63;;
79074;SDS011;68476;42.710;23.388;2023-07-13T08:30:59;8.93;;;6.90;;
79074;SDS011;68476;42.710;23.388;2023-07-13T08:33:26;9.85;;;7.22;;
79074;SDS011;68476;42.710;23.388;2023-07-13T08:35:51;8.77;;;7.25;;
79074;SDS011;68476;42.710;23.388;2023-07-13T08:38:16;8.30;;;7.18;;
79074;SDS011;68476;42.710;23.388;2023-07-13T08:40:43;9.68;;;6.95;;
79074;SDS011;68476;42.710;23.388;2023-07-13T08:43:13;11.50;;;7.35;;
79074;SDS011;68476;42.710;23.388;2023-07-13T08:48:32;10.45;;;7.53;;
79074;SDS011;68476;42.710;23.388;2023-07-13T08:51:11;11.30;;;7.63;;
79074;SDS011;68476;42.710;23.388;2023-07-13T08:53:48;13.90;;;7.28;;
79074;SDS011;68476;42.710;23.388;2023-07-13T08:56:17;10.43;;;7.43;;
79074;SDS011;68476;42.710;23.388;2023-07-13T08:58:49;8.57;;;7.32;;
79074;SDS011;68476;42.710;23.388;2023-07-13T09:12:45;12.65;;;7.47;;
79074;SDS011;68476;42.710;23.388;2023-07-13T09:15:21;10.63;;;8.13;;
79074;SDS011;68476;42.710;23.388;2023-07-13T09:18:07;13.90;;;8.40;;
79074;SDS011;68476;42.710;23.388;2023-07-13T09:20:49;13.48;;;8.07;;
79074;SDS011;68476;42.710;23.388;2023-07-13T09:23:23;16.15;;;8.27;;
79074;SDS011;68476;42.710;23.388;2023-07-13T09:25:51;14.60;;;8.48;;
79074;SDS011;68476;42.710;23.388;2023-07-13T09:28:24;12.70;;;8.70;;
79074;SDS011;68476;42.710;23.388;2023-07-13T09:31:01;10.50;;;9.10;;
79074;SDS011;68476;42.710;23.388;2023-07-13T09:33:34;13.02;;;8.00;;
79074;SDS011;68476;42.710;23.388;2023-07-13T09:36:00;9.93;;;8.40;;
79074;SDS011;68476;42.710;23.388;2023-07-13T09:38:27;9.40;;;8.07;;
79074;SDS011;68476;42.710;23.388;2023-07-13T09:44:00;11.77;;;8.13;;
79074;SDS011;68476;42.710;23.388;2023-07-13T09:46:26;12.18;;;8.60;;
79074;SDS011;68476;42.710;23.388;2023-07-13T09:48:52;12.18;;;8.32;;
79074;SDS011;68476;42.710;23.388;2023-07-13T09:51:17;10.13;;;8.00;;
79074;SDS011;68476;42.710;23.388;2023-07-13T09:53:43;9.07;;;7.72;;
79074;SDS011;68476;42.710;23.388;2023-07-13T09:56:30;10.27;;;7.82;;
79074;SDS011;68476;42.710;23.388;2023-07-13T09:58:55;12.65;;;8.02;;
79074;SDS011;68476;42.710;23.388;2023-07-13T10:01:31;10.85;;;7.88;;
79074;SDS011;68476;42.710;23.388;2023-07-13T10:03:59;9.00;;;7.55;;
79074;SDS011;68476;42.710;23.388;2023-07-13T10:06:24;13.30;;;8.00;;
79074;SDS011;68476;42.710;23.388;2023-07-13T10:08:55;10.57;;;7.38;;
79074;SDS011;68476;42.710;23.388;2023-07-13T10:11:22;12.18;;;7.72;;
79074;SDS011;68476;42.710;23.388;2023-07-13T10:13:52;12.85;;;8.10;;
79074;SDS011;68476;42.710;23.388;2023-07-13T10:16:20;9.25;;;7.18;;
79074;SDS011;68476;42.710;23.388;2023-07-13T10:18:48;12.60;;;7.63;;
79074;SDS011;68476;42.710;23.388;2023-07-13T10:21:19;12.93;;;7.53;;
79074;SDS011;68476;42.710;23.388;2023-07-13T10:24:31;9.93;;;7.40;;
79074;SDS011;68476;42.710;23.388;2023-07-13T10:26:56;10.75;;;7.13;;
79074;SDS011;68476;42.710;23.388;2023-07-13T10:31:52;9.73;;;6.75;;
79074;SDS011;68476;42.710;23.388;2023-07-13T10:34:17;10.90;;;6.85;;
79074;SDS011;68476;42.710;23.388;2023-07-13T10:36:44;11.60;;;7.03;;
79074;SDS011;68476;42.710;23.388;2023-07-13T10:42:15;10.15;;;6.75;;
79074;SDS011;68476;42.710;23.388;2023-07-13T10:47:17;10.52;;;6.60;;
79074;SDS011;68476;42.710;23.388;2023-07-13T10:49:43;10.93;;;6.82;;
79074;SDS011;68476;42.710;23.388;2023-07-13T10:58:03;8.57;;;6.13;;
79074;SDS011;68476;42.710;23.388;2023-07-13T11:00:44;10.75;;;4.90;;
79074;SDS011;68476;42.710;23.388;2023-07-13T11:03:14;9.90;;;4.95;;
79074;SDS011;68476;42.710;23.388;2023-07-13T11:05:42;9.70;;;4.82;;
79074;SDS011;68476;42.710;23.388;2023-07-13T11:10:53;8.27;;;4.78;;
79074;SDS011;68476;42.710;23.388;2023-07-13T11:13:54;17.73;;;5.32;;
79074;SDS011;68476;42.710;23.388;2023-07-13T11:16:35;6.82;;;4.60;;
79074;SDS011;68476;42.710;23.388;2023-07-13T11:24:47;7.80;;;4.60;;
79074;SDS011;68476;42.710;23.388;2023-07-13T11:27:22;6.97;;;4.43;;
79074;SDS011;68476;42.710;23.388;2023-07-13T11:30:08;6.60;;;4.40;;
79074;SDS011;68476;42.710;23.388;2023-07-13T11:32:45;8.80;;;4.40;;
79074;SDS011;68476;42.710;23.388;2023-07-13T11:35:24;7.80;;;4.40;;
79074;SDS011;68476;42.710;23.388;2023-07-13T11:37:51;7.05;;;4.40;;
79074;SDS011;68476;42.710;23.388;2023-07-13T11:40:17;7.72;;;4.20;;
79074;SDS011;68476;42.710;23.388;2023-07-13T11:43:00;7.95;;;4.35;;
79074;SDS011;68476;42.710;23.388;2023-07-13T11:45:26;8.98;;;4.75;;
79074;SDS011;68476;42.710;23.388;2023-07-13T11:47:53;7.50;;;4.63;;
79074;SDS011;68476;42.710;23.388;2023-07-13T11:50:20;7.55;;;4.28;;
79074;SDS011;68476;42.710;23.388;2023-07-13T11:52:48;6.53;;;4.20;;
79074;SDS011;68476;42.710;23.388;2023-07-13T11:55:17;12.15;;;4.93;;
79074;SDS011;68476;42.710;23.388;2023-07-13T11:57:45;9.50;;;4.70;;
79074;SDS011;68476;42.710;23.388;2023-07-13T12:00:17;7.97;;;4.53;;
79074;SDS011;68476;42.710;23.388;2023-07-13T12:02:50;9.15;;;5.00;;
79074;SDS011;68476;42.710;23.388;2023-07-13T12:05:18;9.95;;;4.45;;
79074;SDS011;68476;42.710;23.388;2023-07-13T12:07:48;9.80;;;4.80;;
79074;SDS011;68476;42.710;23.388;2023-07-13T12:10:25;8.80;;;4.55;;
79074;SDS011;68476;42.710;23.388;2023-07-13T12:13:12;7.78;;;4.55;;
79074;SDS011;68476;42.710;23.388;2023-07-13T12:15:43;9.20;;;4.63;;
79074;SDS011;68476;42.710;23.388;2023-07-13T12:18:23;9.27;;;4.50;;
79074;SDS011;68476;42.710;23.388;2023-07-13T12:20:59;16.08;;;5.53;;
79074;SDS011;68476;42.710;23.388;2023-07-13T12:23:39;14.60;;;5.00;;
79074;SDS011;68476;42.710;23.388;2023-07-13T12:26:08;8.55;;;4.80;;
79074;SDS011;68476;42.710;23.388;2023-07-13T12:28:46;14.35;;;4.88;;
79074;SDS011;68476;42.710;23.388;2023-07-13T12:34:16;11.20;;;4.57;;
79074;SDS011;68476;42.710;23.388;2023-07-13T12:36:50;7.40;;;4.28;;
79074;SDS011;68476;42.710;23.388;2023-07-13T12:44:58;8.88;;;4.53;;
79074;SDS011;68476;42.710;23.388;2023-07-13T12:47:27;9.75;;;4.15;;
79074;SDS011;68476;42.710;23.388;2023-07-13T12:50:12;10.85;;;4.57;;
79074;SDS011;68476;42.710;23.388;2023-07-13T12:52:43;12.52;;;4.53;;
79074;SDS011;68476;42.710;23.388;2023-07-13T12:55:15;9.73;;;4.78;;
79074;SDS011;68476;42.710;23.388;2023-07-13T12:57:51;9.77;;;4.93;;
79074;SDS011;68476;42.710;23.388;2023-07-13T13:02:50;7.68;;;4.88;;
79074;SDS011;68476;42.710;23.388;2023-07-13T13:05:24;9.38;;;4.82;;
79074;SDS011;68476;42.710;23.388;2023-07-13T13:07:53;9.45;;;4.03;;
79074;SDS011;68476;42.710;23.388;2023-07-13T13:10:19;8.85;;;4.60;;
79074;SDS011;68476;42.710;23.388;2023-07-13T13:12:46;7.68;;;4.80;;
79074;SDS011;68476;42.710;23.388;2023-07-13T13:15:11;16.50;;;5.32;;
79074;SDS011;68476;42.710;23.388;2023-07-13T13:17:37;13.10;;;4.75;;
79074;SDS011;68476;42.710;23.388;2023-07-13T13:20:19;9.32;;;4.70;;
79074;SDS011;68476;42.710;23.388;2023-07-13T13:22:46;12.35;;;4.47;;
79074;SDS011;68476;42.710;23.388;2023-07-13T13:25:14;8.63;;;4.25;;
79074;SDS011;68476;42.710;23.388;2023-07-13T13:27:40;5.53;;;3.90;;
79074;SDS011;68476;42.710;23.388;2023-07-13T13:30:10;13.18;;;4.78;;
79074;SDS011;68476;42.710;23.388;2023-07-13T13:32:43;9.68;;;4.47;;
79074;SDS011;68476;42.710;23.388;2023-07-13T13:35:16;11.07;;;4.82;;
79074;SDS011;68476;42.710;23.388;2023-07-13T13:37:45;8.57;;;4.30;;
79074;SDS011;68476;42.710;23.388;2023-07-13T13:40:16;14.55;;;4.63;;
79074;SDS011;68476;42.710;23.388;2023-07-13T13:42:48;16.38;;;5.22;;
79074;SDS011;68476;42.710;23.388;2023-07-13T13:45:13;7.50;;;4.20;;
79074;SDS011;68476;42.710;23.388;2023-07-13T13:47:41;8.27;;;4.32;;
79074;SDS011;68476;42.710;23.388;2023-07-13T13:50:18;9.93;;;4.43;;
79074;SDS011;68476;42.710;23.388;2023-07-13T13:52:47;8.93;;;4.00;;
79074;SDS011;68476;42.710;23.388;2023-07-13T13:55:13;8.80;;;4.10;;
79074;SDS011;68476;42.710;23.388;2023-07-13T13:57:44;8.95;;;4.28;;
79074;SDS011;68476;42.710;23.388;2023-07-13T14:00:14;8.85;;;4.13;;
79074;SDS011;68476;42.710;23.388;2023-07-13T14:02:42;9.77;;;4.10;;
79074;SDS011;68476;42.710;23.388;2023-07-13T14:05:15;10.38;;;4.28;;
79074;SDS011;68476;42.710;23.388;2023-07-13T14:07:45;7.88;;;4.45;;
79074;SDS011;68476;42.710;23.388;2023-07-13T14:10:11;12.38;;;4.32;;
79074;SDS011;68476;42.710;23.388;2023-07-13T14:12:40;10.45;;;4.18;;
79074;SDS011;68476;42.710;23.388;2023-07-13T14:15:20;11.27;;;4.30;;
79074;SDS011;68476;42.710;23.388;2023-07-13T14:17:48;8.98;;;4.22;;
79074;SDS011;68476;42.710;23.388;2023-07-13T14:20:17;9.65;;;4.85;;
79074;SDS011;68476;42.710;23.388;2023-07-13T14:22:44;8.52;;;3.90;;
79074;SDS011;68476;42.710;23.388;2023-07-13T14:25:13;5.88;;;3.40;;
79074;SDS011;68476;42.710;23.388;2023-07-13T14:27:39;11.68;;;5.00;;
79074;SDS011;68476;42.710;23.388;2023-07-13T14:30:13;9.15;;;4.20;;
79074;SDS011;68476;42.710;23.388;2023-07-13T14:32:39;10.23;;;4.63;;
79074;SDS011;68476;42.710;23.388;2023-07-13T14:35:05;11.32;;;4.93;;
79074;SDS011;68476;42.710;23.388;2023-07-13T14:37:31;11.05;;;4.82;;
79074;SDS011;68476;42.710;23.388;2023-07-13T14:39:56;8.88;;;4.35;;
79074;SDS011;68476;42.710;23.388;2023-07-13T14:42:22;7.80;;;4.32;;
79074;SDS011;68476;42.710;23.388;2023-07-13T14:44:47;11.10;;;4.50;;
79074;SDS011;68476;42.710;23.388;2023-07-13T14:47:12;6.68;;;4.03;;
79074;SDS011;68476;42.710;23.388;2023-07-13T14:49:39;8.10;;;4.38;;
79074;SDS011;68476;42.710;23.388;2023-07-13T14:52:20;11.75;;;4.60;;
79074;SDS011;68476;42.710;23.388;2023-07-13T14:54:47;11.93;;;4.55;;
79074;SDS011;68476;42.710;23.388;2023-07-13T14:57:14;8.75;;;4.60;;
79074;SDS011;68476;42.710;23.388;2023-07-13T14:59:44;9.20;;;4.40;;
79074;SDS011;68476;42.710;23.388;2023-07-13T15:02:19;6.97;;;4.00;;
79074;SDS011;68476;42.710;23.388;2023-07-13T15:04:47;10.55;;;4.30;;
79074;SDS011;68476;42.710;23.388;2023-07-13T15:07:12;10.13;;;4.50;;
79074;SDS011;68476;42.710;23.388;2023-07-13T15:09:40;11.23;;;5.05;;
79074;SDS011;68476;42.710;23.388;2023-07-13T15:12:06;13.23;;;5.30;;
79074;SDS011;68476;42.710;23.388;2023-07-13T15:14:32;11.82;;;4.93;;
79074;SDS011;68476;42.710;23.388;2023-07-13T15:16:57;13.75;;;5.13;;
79074;SDS011;68476;42.710;23.388;2023-07-13T15:19:23;14.60;;;4.70;;
79074;SDS011;68476;42.710;23.388;2023-07-13T15:21:50;12.60;;;4.97;;
79074;SDS011;68476;42.710;23.388;2023-07-13T15:24:17;12.05;;;4.40;;